createdAt,value
2023-04-02T00:01:39.162Z,99833.34
2023-04-02T00:06:45.344Z,99841.28
2023-04-02T00:11:51.030Z,99837.75
2023-04-02T00:16:56.169Z,99846.53
2023-04-02T00:22:00.747Z,99843.03
2023-04-02T00:27:02.785Z,99856.22
2023-04-02T00:32:05.030Z,99858.84
2023-04-02T00:37:07.171Z,99852.69
2023-04-02T00:42:13.047Z,99854.44
2023-04-02T00:47:20.456Z,99854.44
2023-04-02T00:52:26.477Z,99859.72
2023-04-02T00:57:28.871Z,99864.13
2023-04-02T01:02:32.310Z,99871.16
2023-04-02T01:08:01.347Z,99876.41
2023-04-02T01:13:31.441Z,99888.72
2023-04-02T01:18:52.040Z,99896.63
2023-04-02T01:23:59.654Z,99901.00
2023-04-02T01:29:17.671Z,99893.09
2023-04-02T01:34:25.164Z,99894.84
2023-04-02T01:39:58.522Z,99905.38
2023-04-02T01:45:13.076Z,99908.88
2023-04-02T01:50:17.697Z,99911.53
2023-04-02T01:55:45.366Z,99918.56
2023-04-02T02:06:06.874Z,99935.25
2023-04-02T02:11:14.889Z,99933.50
2023-04-02T02:16:18.514Z,99942.25
2023-04-02T02:21:43.893Z,99944.00
2023-04-02T02:26:48.821Z,99947.50
2023-04-02T02:31:56.491Z,99955.41
2023-04-02T02:37:32.731Z,99963.28
2023-04-02T02:42:40.068Z,99968.53
2023-04-02T02:47:45.843Z,99971.13
2023-04-02T02:52:53.656Z,99968.50
2023-04-02T02:58:04.924Z,99980.75
2023-04-02T03:03:29.086Z,99982.47
2023-04-02T03:08:57.072Z,99987.72
2023-04-02T03:14:12.036Z,99994.72
2023-04-02T03:19:25.092Z,100005.25
2023-04-02T03:24:45.961Z,100012.22
2023-04-02T03:29:58.813Z,100008.69
2023-04-02T03:35:24.155Z,100013.06
2023-04-02T03:40:31.890Z,100016.56
2023-04-02T03:45:41.539Z,100033.19
2023-04-02T03:50:52.600Z,100028.78
2023-04-02T03:55:56.839Z,100034.03
2023-04-02T04:01:04.632Z,100053.31
2023-04-02T04:06:10.836Z,100051.53
2023-04-02T04:11:20.306Z,100055.91
2023-04-02T04:16:32.871Z,100065.59
2023-04-02T04:21:38.053Z,100072.59
2023-04-02T04:26:49.820Z,100081.34
2023-04-02T04:31:55.919Z,100077.81
2023-04-02T04:37:03.166Z,100097.13
2023-04-02T04:42:07.673Z,100093.56
2023-04-02T04:47:19.351Z,100101.47
2023-04-02T04:52:33.225Z,100112.84
2023-04-02T04:57:38.290Z,100114.59
2023-04-02T05:03:13.667Z,100131.25
2023-04-02T05:08:38.053Z,100140.00
2023-04-02T05:14:06.744Z,100141.72
2023-04-02T05:19:25.714Z,100166.28
2023-04-02T05:24:44.035Z,100158.34
2023-04-02T05:29:51.352Z,100170.63
2023-04-02T05:34:56.249Z,100163.56
2023-04-02T05:40:06.946Z,100171.47
2023-04-02T05:45:33.060Z,100182.91
2023-04-02T05:50:37.849Z,100193.41
2023-04-02T05:55:55.214Z,100196.91
2023-04-02T06:01:00.142Z,100207.44
2023-04-02T06:06:08.280Z,100213.56
2023-04-02T06:11:20.441Z,100226.72
2023-04-02T06:16:28.285Z,100227.56
2023-04-02T06:21:30.362Z,100242.47
2023-04-02T06:26:35.504Z,100248.59
2023-04-02T06:31:43.301Z,100259.13
2023-04-02T06:36:46.095Z,100267.88
2023-04-02T06:42:00.281Z,100273.13
2023-04-02T06:47:14.309Z,100277.50
2023-04-02T06:52:26.420Z,100290.69
2023-04-02T06:57:28.514Z,100298.59
2023-04-02T07:02:41.211Z,100307.38
2023-04-02T07:07:43.360Z,100306.50
2023-04-02T07:12:45.717Z,100310.03
2023-04-02T07:17:47.956Z,100321.44
2023-04-02T07:22:50.040Z,100329.38
2023-04-02T07:27:53.681Z,100325.00
2023-04-02T07:32:55.984Z,100340.81
2023-04-02T07:37:58.135Z,100342.59
2023-04-02T07:43:01.021Z,100347.91
2023-04-02T07:48:14.362Z,100356.72
2023-04-02T07:53:31.068Z,100368.19
2023-04-02T07:58:34.584Z,100369.09
2023-04-02T08:03:37.067Z,100367.38
2023-04-02T08:08:39.293Z,100384.13
2023-04-02T08:13:41.748Z,100385.03
2023-04-02T08:18:43.890Z,100388.56
2023-04-02T08:23:46.074Z,100401.72
2023-04-02T08:28:48.015Z,100407.88
2023-04-02T08:33:50.143Z,100417.56
2023-04-02T08:38:52.602Z,100428.09
2023-04-02T08:44:15.399Z,100426.34
2023-04-02T08:49:25.257Z,100438.66
2023-04-02T08:54:38.272Z,100438.66
2023-04-02T08:59:43.608Z,100444.81
2023-04-02T09:04:45.827Z,100452.72
2023-04-02T09:09:50.316Z,100460.69
2023-04-02T09:15:11.449Z,100466.00
2023-04-02T09:20:18.443Z,100473.06
2023-04-02T09:25:22.247Z,100483.66
2023-04-02T09:30:30.380Z,100488.91
2023-04-02T09:35:34.599Z,100508.28
2023-04-02T09:40:54.593Z,100516.16
2023-04-02T09:46:00.675Z,100524.97
2023-04-02T09:51:22.115Z,100535.53
2023-04-02T09:56:26.817Z,100541.72
2023-04-02T10:01:34.036Z,100543.47
2023-04-02T10:06:36.634Z,100547.88
2023-04-02T10:11:46.078Z,100550.53
2023-04-02T10:16:58.585Z,100554.97
2023-04-02T10:22:05.744Z,100557.66
2023-04-02T10:27:30.922Z,100566.50
2023-04-02T10:32:43.469Z,100577.97
2023-04-02T10:38:04.172Z,100581.53
2023-04-02T10:43:31.806Z,100589.50
2023-04-02T10:48:54.414Z,100600.97
2023-04-02T10:54:22.136Z,100605.38
2023-04-02T10:59:34.770Z,100608.94
2023-04-02T11:04:45.177Z,100612.47
2023-04-02T11:09:52.542Z,100622.16
2023-04-02T11:14:55.845Z,100633.56
2023-04-02T11:20:38.160Z,100643.19
2023-04-02T11:25:42.599Z,100645.84
2023-04-02T11:30:48.838Z,100648.47
2023-04-02T11:35:50.964Z,100655.53
2023-04-02T11:40:58.483Z,100666.94
2023-04-02T11:46:04.664Z,100682.75
2023-04-02T11:51:26.065Z,100682.63
2023-04-02T11:56:50.963Z,100681.63
2023-04-02T12:02:20.752Z,100695.47
2023-04-02T12:08:00.008Z,100700.56
2023-04-02T12:13:08.448Z,100710.91
2023-04-02T12:18:29.220Z,100712.53
2023-04-02T12:23:43.000Z,100718.56
2023-04-02T12:34:23.518Z,100742.88
2023-04-02T12:39:53.817Z,100731.31
2023-04-02T12:44:58.801Z,100736.50
2023-04-02T12:50:02.393Z,100742.53
2023-04-02T12:55:05.750Z,100745.94
2023-04-02T13:00:23.088Z,100751.09
2023-04-02T13:05:43.185Z,100754.47
2023-04-02T13:10:46.302Z,100757.91
2023-04-02T13:16:08.495Z,100761.34
2023-04-02T13:21:20.186Z,100774.47
2023-04-02T13:26:25.628Z,100770.91
2023-04-02T13:31:29.827Z,100773.50
2023-04-02T13:36:32.211Z,100778.69
2023-04-02T13:41:43.113Z,100785.66
2023-04-02T13:46:45.184Z,100776.00
2023-04-02T13:51:53.232Z,100783.03
2023-04-02T13:56:57.413Z,100795.34
2023-04-02T14:02:14.430Z,100792.72
2023-04-02T14:07:47.092Z,100799.75
2023-04-02T14:13:12.203Z,100806.75
2023-04-02T14:18:39.866Z,100819.91
2023-04-02T14:24:10.108Z,100821.69
2023-04-02T14:29:20.948Z,100828.69
2023-04-02T14:34:31.624Z,100829.56
2023-04-02T14:39:58.518Z,100837.50
2023-04-02T14:45:45.032Z,100847.22
2023-04-02T14:50:49.199Z,100847.25
2023-04-02T14:55:53.643Z,100843.75
2023-04-02T15:01:04.109Z,100851.69
2023-04-02T15:06:15.495Z,100849.09
2023-04-02T15:11:21.991Z,100858.78
2023-04-02T15:16:29.342Z,100866.63
2023-04-02T15:21:57.516Z,100879.84
2023-04-02T15:27:34.643Z,100881.59
2023-04-02T15:32:39.785Z,100890.38
2023-04-02T15:38:02.476Z,100899.16
2023-04-02T15:43:17.117Z,100913.22
2023-04-02T15:48:19.098Z,100911.47
2023-04-02T15:53:34.706Z,100915.84
2023-04-02T15:58:57.666Z,100929.00
2023-04-02T16:04:11.979Z,100937.78
2023-04-02T16:09:24.384Z,100936.94
2023-04-02T16:14:31.843Z,100948.31
2023-04-02T16:19:40.093Z,100954.47
2023-04-02T16:24:44.464Z,100966.78
2023-04-02T16:30:42.101Z,100974.63
2023-04-02T16:35:57.649Z,100983.41
2023-04-02T16:41:09.228Z,100989.53
2023-04-02T16:46:41.773Z,101002.66
2023-04-02T16:52:03.836Z,101011.38
2023-04-02T16:57:44.082Z,101015.72
2023-04-02T17:03:03.313Z,101027.97
2023-04-02T17:08:28.769Z,101034.94
2023-04-02T17:13:45.669Z,101048.06
2023-04-02T17:18:53.665Z,101060.28
2023-04-02T17:23:59.627Z,101057.59
2023-04-02T17:29:09.463Z,101061.09
2023-04-02T17:34:15.481Z,101075.97
2023-04-02T17:39:39.919Z,101080.31
2023-04-02T17:45:04.449Z,101081.16
2023-04-02T17:50:13.485Z,101096.84
2023-04-02T17:55:55.981Z,101100.34
2023-04-02T18:01:45.939Z,101105.50
2023-04-02T18:07:29.810Z,101105.50
2023-04-02T18:12:42.455Z,101116.78
2023-04-02T18:17:51.161Z,101116.69
2023-04-02T18:22:59.258Z,101132.47
2023-04-02T18:28:34.448Z,101136.75
2023-04-02T18:34:04.910Z,101152.50
2023-04-02T18:39:27.442Z,101150.66
2023-04-02T18:44:39.373Z,101158.53
2023-04-02T18:49:50.612Z,101167.22
2023-04-02T18:55:01.047Z,101168.03
2023-04-02T19:00:27.451Z,101171.44
2023-04-02T19:05:37.163Z,101171.41
2023-04-02T19:10:47.542Z,101187.13
2023-04-02T19:16:03.073Z,101185.25
2023-04-02T19:21:41.649Z,101191.34
2023-04-02T19:26:59.898Z,101198.31
2023-04-02T19:32:42.289Z,101197.31
2023-04-02T19:43:15.122Z,101208.53
2023-04-02T19:48:26.025Z,101220.69
2023-04-02T19:53:29.559Z,101220.59
2023-04-02T19:58:36.917Z,101232.69
2023-04-02T20:03:40.552Z,101238.56
2023-04-02T20:08:44.285Z,101250.63
2023-04-02T20:13:47.488Z,101253.88
2023-04-02T20:18:52.402Z,101277.31
2023-04-02T20:23:56.409Z,101272.69
2023-04-02T20:28:59.453Z,101279.44
2023-04-02T20:34:05.309Z,101294.09
2023-04-02T20:39:09.936Z,101291.28
2023-04-02T20:44:13.142Z,101307.66
2023-04-02T20:49:16.025Z,101308.22
2023-04-02T20:54:18.007Z,101315.03
2023-04-02T20:59:20.149Z,101318.25
2023-04-02T21:04:22.400Z,101321.53
2023-04-02T21:09:24.701Z,101334.38
2023-04-02T21:14:26.786Z,101338.44
2023-04-02T21:19:29.010Z,101335.56
2023-04-02T21:24:31.298Z,101339.75
2023-04-02T21:29:33.415Z,101345.53
2023-04-02T21:34:35.586Z,101358.34
2023-04-02T21:39:38.105Z,101359.91
2023-04-02T21:44:40.148Z,101363.13
2023-04-02T21:49:42.166Z,101364.59
2023-04-02T21:54:44.270Z,101367.88
2023-04-02T21:59:46.274Z,101365.00
2023-04-02T22:04:48.252Z,101370.81
2023-04-02T22:09:50.217Z,101376.69
2023-04-02T22:14:52.240Z,101382.63
2023-04-02T22:19:54.354Z,101395.41
2023-04-02T22:24:56.709Z,101402.25
2023-04-02T22:29:58.731Z,101403.69
2023-04-02T22:35:00.826Z,101412.19
2023-04-02T22:40:02.881Z,101419.84
2023-04-02T22:45:05.624Z,101421.28
2023-04-02T22:50:08.004Z,101436.72
2023-04-02T22:55:11.913Z,101433.06
2023-04-02T23:00:16.708Z,101435.38
2023-04-02T23:05:18.866Z,101432.44
2023-04-02T23:10:21.159Z,101454.19
2023-04-02T23:15:23.323Z,101439.84
2023-04-02T23:20:25.450Z,101451.00
2023-04-02T23:25:27.479Z,101451.69
2023-04-02T23:30:29.557Z,101451.41
2023-04-02T23:35:31.596Z,101453.75
2023-04-02T23:40:34.051Z,101454.34
2023-04-02T23:45:36.636Z,101458.53
2023-04-02T23:50:38.808Z,101458.25
2023-04-02T23:55:41.274Z,101460.56
